sensor_id;sensor_type;location;lat;lon;timestamp;P1;durP1;ratioP1;P2;durP2;ratioP2
27839;SDS011;15207;42.182;24.308;2023-03-04T00:01:25;48.90;;;30.70;;
27839;SDS011;15207;42.182;24.308;2023-03-04T00:03:51;54.30;;;30.90;;
27839;SDS011;15207;42.182;24.308;2023-03-04T00:06:16;45.20;;;30.50;;
27839;SDS011;15207;42.182;24.308;2023-03-04T00:08:41;51.40;;;30.75;;
27839;SDS011;15207;42.182;24.308;2023-03-04T00:11:07;48.40;;;32.65;;
27839;SDS011;15207;42.182;24.308;2023-03-04T00:13:32;43.80;;;29.80;;
27839;SDS011;15207;42.182;24.308;2023-03-04T00:15:58;52.30;;;33.10;;
27839;SDS011;15207;42.182;24.308;2023-03-04T00:18:23;45.70;;;31.00;;
27839;SDS011;15207;42.182;24.308;2023-03-04T00:20:49;49.33;;;31.33;;
27839;SDS011;15207;42.182;24.308;2023-03-04T00:23:15;47.25;;;32.65;;
27839;SDS011;15207;42.182;24.308;2023-03-04T00:25:41;50.10;;;33.30;;
27839;SDS011;15207;42.182;24.308;2023-03-04T00:28:06;50.35;;;33.25;;
27839;SDS011;15207;42.182;24.308;2023-03-04T00:32:57;51.50;;;33.50;;
27839;SDS011;15207;42.182;24.308;2023-03-04T00:35:23;46.40;;;30.35;;
27839;SDS011;15207;42.182;24.308;2023-03-04T00:37:48;47.20;;;31.90;;
27839;SDS011;15207;42.182;24.308;2023-03-04T00:40:14;49.20;;;32.30;;
27839;SDS011;15207;42.182;24.308;2023-03-04T00:42:39;52.30;;;34.40;;
27839;SDS011;15207;42.182;24.308;2023-03-04T00:45:05;47.65;;;32.35;;
27839;SDS011;15207;42.182;24.308;2023-03-04T00:47:31;49.00;;;33.13;;
27839;SDS011;15207;42.182;24.308;2023-03-04T00:49:56;53.50;;;34.45;;
27839;SDS011;15207;42.182;24.308;2023-03-04T00:52:22;47.85;;;32.80;;
27839;SDS011;15207;42.182;24.308;2023-03-04T00:54:47;51.55;;;34.05;;
27839;SDS011;15207;42.182;24.308;2023-03-04T00:57:13;54.22;;;34.80;;
27839;SDS011;15207;42.182;24.308;2023-03-04T00:59:38;51.50;;;34.30;;
27839;SDS011;15207;42.182;24.308;2023-03-04T01:02:04;53.60;;;34.60;;
27839;SDS011;15207;42.182;24.308;2023-03-04T01:04:31;52.23;;;34.63;;
27839;SDS011;15207;42.182;24.308;2023-03-04T01:06:56;54.75;;;35.65;;
27839;SDS011;15207;42.182;24.308;2023-03-04T01:09:22;48.05;;;33.85;;
27839;SDS011;15207;42.182;24.308;2023-03-04T01:11:47;50.90;;;35.80;;
27839;SDS011;15207;42.182;24.308;2023-03-04T01:14:13;57.10;;;34.10;;
27839;SDS011;15207;42.182;24.308;2023-03-04T01:16:38;53.35;;;37.00;;
27839;SDS011;15207;42.182;24.308;2023-03-04T01:19:04;55.33;;;36.17;;
27839;SDS011;15207;42.182;24.308;2023-03-04T01:21:32;60.60;;;39.10;;
27839;SDS011;15207;42.182;24.308;2023-03-04T01:23:58;61.20;;;38.60;;
27839;SDS011;15207;42.182;24.308;2023-03-04T01:26:23;59.50;;;36.80;;
27839;SDS011;15207;42.182;24.308;2023-03-04T01:28:49;60.00;;;37.15;;
27839;SDS011;15207;42.182;24.308;2023-03-04T01:31:14;56.70;;;36.40;;
27839;SDS011;15207;42.182;24.308;2023-03-04T01:33:40;55.30;;;37.00;;
27839;SDS011;15207;42.182;24.308;2023-03-04T01:36:05;56.90;;;36.80;;
27839;SDS011;15207;42.182;24.308;2023-03-04T01:38:31;65.65;;;40.25;;
27839;SDS011;15207;42.182;24.308;2023-03-04T01:40:56;73.50;;;46.40;;
27839;SDS011;15207;42.182;24.308;2023-03-04T01:43:23;80.30;;;50.50;;
27839;SDS011;15207;42.182;24.308;2023-03-04T01:45:51;85.75;;;51.25;;
27839;SDS011;15207;42.182;24.308;2023-03-04T01:48:20;86.10;;;51.80;;
27839;SDS011;15207;42.182;24.308;2023-03-04T01:50:49;80.93;;;49.67;;
27839;SDS011;15207;42.182;24.308;2023-03-04T01:53:22;83.85;;;51.00;;
27839;SDS011;15207;42.182;24.308;2023-03-04T01:55:49;82.97;;;49.90;;
27839;SDS011;15207;42.182;24.308;2023-03-04T01:58:17;79.00;;;48.00;;
27839;SDS011;15207;42.182;24.308;2023-03-04T02:00:42;77.80;;;47.80;;
27839;SDS011;15207;42.182;24.308;2023-03-04T02:03:15;69.90;;;42.30;;
27839;SDS011;15207;42.182;24.308;2023-03-04T02:05:44;81.10;;;49.40;;
27839;SDS011;15207;42.182;24.308;2023-03-04T02:08:13;82.95;;;52.90;;
27839;SDS011;15207;42.182;24.308;2023-03-04T02:10:40;83.40;;;52.40;;
27839;SDS011;15207;42.182;24.308;2023-03-04T02:13:07;84.05;;;52.45;;
27839;SDS011;15207;42.182;24.308;2023-03-04T02:15:33;83.40;;;49.30;;
27839;SDS011;15207;42.182;24.308;2023-03-04T02:17:59;84.25;;;53.25;;
27839;SDS011;15207;42.182;24.308;2023-03-04T02:20:53;83.70;;;52.60;;
27839;SDS011;15207;42.182;24.308;2023-03-04T02:28:44;83.20;;;48.50;;
27839;SDS011;15207;42.182;24.308;2023-03-04T02:31:33;77.30;;;48.80;;
27839;SDS011;15207;42.182;24.308;2023-03-04T02:34:00;78.60;;;47.00;;
27839;SDS011;15207;42.182;24.308;2023-03-04T02:36:28;79.80;;;46.35;;
27839;SDS011;15207;42.182;24.308;2023-03-04T02:38:54;73.90;;;43.60;;
27839;SDS011;15207;42.182;24.308;2023-03-04T02:41:26;73.60;;;46.17;;
27839;SDS011;15207;42.182;24.308;2023-03-04T02:43:54;76.80;;;47.20;;
27839;SDS011;15207;42.182;24.308;2023-03-04T02:46:20;86.05;;;50.50;;
27839;SDS011;15207;42.182;24.308;2023-03-04T02:48:46;80.50;;;47.25;;
27839;SDS011;15207;42.182;24.308;2023-03-04T02:51:12;75.50;;;47.00;;
27839;SDS011;15207;42.182;24.308;2023-03-04T02:53:37;74.30;;;47.40;;
27839;SDS011;15207;42.182;24.308;2023-03-04T02:56:03;65.70;;;42.60;;
27839;SDS011;15207;42.182;24.308;2023-03-04T02:58:29;61.85;;;41.45;;
27839;SDS011;15207;42.182;24.308;2023-03-04T03:00:54;58.50;;;39.60;;
27839;SDS011;15207;42.182;24.308;2023-03-04T03:03:20;68.15;;;42.05;;
27839;SDS011;15207;42.182;24.308;2023-03-04T03:05:46;66.90;;;41.10;;
27839;SDS011;15207;42.182;24.308;2023-03-04T03:08:11;63.70;;;41.35;;
27839;SDS011;15207;42.182;24.308;2023-03-04T03:10:37;71.30;;;46.10;;
27839;SDS011;15207;42.182;24.308;2023-03-04T03:13:02;72.05;;;46.40;;
27839;SDS011;15207;42.182;24.308;2023-03-04T03:15:28;72.30;;;44.30;;
27839;SDS011;15207;42.182;24.308;2023-03-04T03:17:53;70.57;;;44.50;;
27839;SDS011;15207;42.182;24.308;2023-03-04T03:20:18;67.90;;;42.60;;
27839;SDS011;15207;42.182;24.308;2023-03-04T03:22:44;72.20;;;45.10;;
27839;SDS011;15207;42.182;24.308;2023-03-04T03:25:11;67.95;;;41.60;;
27839;SDS011;15207;42.182;24.308;2023-03-04T03:27:37;66.45;;;41.30;;
27839;SDS011;15207;42.182;24.308;2023-03-04T03:30:03;59.60;;;38.75;;
27839;SDS011;15207;42.182;24.308;2023-03-04T03:32:29;63.15;;;37.80;;
27839;SDS011;15207;42.182;24.308;2023-03-04T03:34:55;60.95;;;39.00;;
27839;SDS011;15207;42.182;24.308;2023-03-04T03:37:20;62.20;;;39.95;;
27839;SDS011;15207;42.182;24.308;2023-03-04T03:39:46;67.90;;;42.60;;
27839;SDS011;15207;42.182;24.308;2023-03-04T03:42:11;73.30;;;44.60;;
27839;SDS011;15207;42.182;24.308;2023-03-04T03:44:37;72.20;;;45.30;;
27839;SDS011;15207;42.182;24.308;2023-03-04T03:47:02;72.60;;;45.10;;
27839;SDS011;15207;42.182;24.308;2023-03-04T03:49:28;79.00;;;46.65;;
27839;SDS011;15207;42.182;24.308;2023-03-04T03:51:53;78.15;;;44.40;;
27839;SDS011;15207;42.182;24.308;2023-03-04T03:54:19;70.35;;;44.45;;
27839;SDS011;15207;42.182;24.308;2023-03-04T03:56:44;74.75;;;45.30;;
27839;SDS011;15207;42.182;24.308;2023-03-04T03:59:10;71.75;;;44.70;;
27839;SDS011;15207;42.182;24.308;2023-03-04T04:01:35;73.80;;;47.85;;
27839;SDS011;15207;42.182;24.308;2023-03-04T04:04:01;77.05;;;47.70;;
27839;SDS011;15207;42.182;24.308;2023-03-04T04:06:27;76.23;;;47.63;;
27839;SDS011;15207;42.182;24.308;2023-03-04T04:08:53;78.70;;;45.70;;
27839;SDS011;15207;42.182;24.308;2023-03-04T04:11:18;83.30;;;49.00;;
27839;SDS011;15207;42.182;24.308;2023-03-04T04:13:44;77.95;;;47.50;;
27839;SDS011;15207;42.182;24.308;2023-03-04T04:16:09;81.40;;;49.80;;
27839;SDS011;15207;42.182;24.308;2023-03-04T04:18:35;89.70;;;50.20;;
27839;SDS011;15207;42.182;24.308;2023-03-04T04:21:01;97.47;;;52.87;;
27839;SDS011;15207;42.182;24.308;2023-03-04T04:23:28;95.27;;;53.70;;
27839;SDS011;15207;42.182;24.308;2023-03-04T04:25:54;92.15;;;53.70;;
27839;SDS011;15207;42.182;24.308;2023-03-04T04:28:19;85.10;;;50.30;;
27839;SDS011;15207;42.182;24.308;2023-03-04T04:30:45;80.40;;;49.40;;
27839;SDS011;15207;42.182;24.308;2023-03-04T04:33:11;77.30;;;48.15;;
27839;SDS011;15207;42.182;24.308;2023-03-04T04:35:36;76.65;;;47.70;;
27839;SDS011;15207;42.182;24.308;2023-03-04T04:38:05;71.30;;;45.20;;
27839;SDS011;15207;42.182;24.308;2023-03-04T04:40:31;76.30;;;47.00;;
27839;SDS011;15207;42.182;24.308;2023-03-04T04:42:56;85.60;;;49.40;;
27839;SDS011;15207;42.182;24.308;2023-03-04T04:45:22;82.90;;;49.40;;
27839;SDS011;15207;42.182;24.308;2023-03-04T04:47:54;79.40;;;46.70;;
27839;SDS011;15207;42.182;24.308;2023-03-04T04:50:21;82.10;;;48.55;;
27839;SDS011;15207;42.182;24.308;2023-03-04T04:52:48;84.80;;;48.90;;
27839;SDS011;15207;42.182;24.308;2023-03-04T04:55:13;87.60;;;50.60;;
27839;SDS011;15207;42.182;24.308;2023-03-04T04:57:39;83.40;;;51.50;;
27839;SDS011;15207;42.182;24.308;2023-03-04T05:00:05;76.75;;;49.00;;
27839;SDS011;15207;42.182;24.308;2023-03-04T05:02:31;83.05;;;48.55;;
27839;SDS011;15207;42.182;24.308;2023-03-04T05:05:00;86.13;;;46.50;;
27839;SDS011;15207;42.182;24.308;2023-03-04T05:07:27;76.90;;;46.73;;
27839;SDS011;15207;42.182;24.308;2023-03-04T05:09:52;71.90;;;45.75;;
27839;SDS011;15207;42.182;24.308;2023-03-04T05:12:18;76.50;;;45.60;;
27839;SDS011;15207;42.182;24.308;2023-03-04T05:14:43;73.70;;;45.25;;
27839;SDS011;15207;42.182;24.308;2023-03-04T05:17:09;69.15;;;43.30;;
27839;SDS011;15207;42.182;24.308;2023-03-04T05:19:34;70.90;;;45.10;;
27839;SDS011;15207;42.182;24.308;2023-03-04T05:22:00;69.65;;;42.10;;
27839;SDS011;15207;42.182;24.308;2023-03-04T05:24:25;79.80;;;45.25;;
27839;SDS011;15207;42.182;24.308;2023-03-04T05:26:51;70.80;;;44.60;;
27839;SDS011;15207;42.182;24.308;2023-03-04T05:29:16;70.22;;;43.90;;
27839;SDS011;15207;42.182;24.308;2023-03-04T05:31:42;75.25;;;46.20;;
27839;SDS011;15207;42.182;24.308;2023-03-04T05:34:08;74.30;;;44.90;;
27839;SDS011;15207;42.182;24.308;2023-03-04T05:36:33;76.57;;;45.13;;
27839;SDS011;15207;42.182;24.308;2023-03-04T05:38:58;68.45;;;42.55;;
27839;SDS011;15207;42.182;24.308;2023-03-04T05:41:24;67.45;;;42.20;;
27839;SDS011;15207;42.182;24.308;2023-03-04T05:43:49;64.83;;;40.93;;
27839;SDS011;15207;42.182;24.308;2023-03-04T05:46:17;66.95;;;41.65;;
27839;SDS011;15207;42.182;24.308;2023-03-04T05:48:48;68.95;;;41.70;;
27839;SDS011;15207;42.182;24.308;2023-03-04T05:51:13;69.65;;;41.80;;
27839;SDS011;15207;42.182;24.308;2023-03-04T05:53:39;70.60;;;43.60;;
27839;SDS011;15207;42.182;24.308;2023-03-04T05:56:09;63.70;;;40.70;;
27839;SDS011;15207;42.182;24.308;2023-03-04T05:58:36;60.50;;;38.10;;
27839;SDS011;15207;42.182;24.308;2023-03-04T06:01:02;63.90;;;39.95;;
27839;SDS011;15207;42.182;24.308;2023-03-04T06:03:28;60.70;;;39.90;;
27839;SDS011;15207;42.182;24.308;2023-03-04T06:05:54;62.70;;;39.20;;
27839;SDS011;15207;42.182;24.308;2023-03-04T06:08:19;61.35;;;37.90;;
27839;SDS011;15207;42.182;24.308;2023-03-04T06:10:45;63.33;;;40.03;;
27839;SDS011;15207;42.182;24.308;2023-03-04T06:13:10;73.63;;;42.40;;
27839;SDS011;15207;42.182;24.308;2023-03-04T06:15:37;66.40;;;42.30;;
27839;SDS011;15207;42.182;24.308;2023-03-04T06:18:04;64.87;;;40.90;;
27839;SDS011;15207;42.182;24.308;2023-03-04T06:20:30;68.10;;;42.50;;
27839;SDS011;15207;42.182;24.308;2023-03-04T06:22:56;71.90;;;41.35;;
27839;SDS011;15207;42.182;24.308;2023-03-04T06:25:21;70.70;;;43.45;;
27839;SDS011;15207;42.182;24.308;2023-03-04T06:27:47;63.60;;;42.85;;
27839;SDS011;15207;42.182;24.308;2023-03-04T06:30:13;70.70;;;43.20;;
27839;SDS011;15207;42.182;24.308;2023-03-04T06:32:39;70.60;;;44.30;;
27839;SDS011;15207;42.182;24.308;2023-03-04T06:35:05;71.20;;;44.50;;
27839;SDS011;15207;42.182;24.308;2023-03-04T06:37:30;82.60;;;44.20;;
27839;SDS011;15207;42.182;24.308;2023-03-04T06:39:56;76.80;;;45.63;;
27839;SDS011;15207;42.182;24.308;2023-03-04T06:42:21;71.95;;;44.55;;
27839;SDS011;15207;42.182;24.308;2023-03-04T06:44:47;79.95;;;45.20;;
27839;SDS011;15207;42.182;24.308;2023-03-04T06:47:13;73.60;;;46.73;;
27839;SDS011;15207;42.182;24.308;2023-03-04T06:49:40;85.70;;;50.47;;
27839;SDS011;15207;42.182;24.308;2023-03-04T06:52:05;88.70;;;54.70;;
27839;SDS011;15207;42.182;24.308;2023-03-04T06:54:31;88.70;;;54.90;;
27839;SDS011;15207;42.182;24.308;2023-03-04T06:56:56;95.25;;;60.75;;
27839;SDS011;15207;42.182;24.308;2023-03-04T06:59:22;111.60;;;64.60;;
27839;SDS011;15207;42.182;24.308;2023-03-04T07:01:47;106.35;;;65.65;;
27839;SDS011;15207;42.182;24.308;2023-03-04T07:04:13;120.60;;;74.90;;
27839;SDS011;15207;42.182;24.308;2023-03-04T07:06:38;124.07;;;78.93;;
27839;SDS011;15207;42.182;24.308;2023-03-04T07:09:04;124.35;;;83.35;;
27839;SDS011;15207;42.182;24.308;2023-03-04T07:11:30;98.60;;;65.60;;
27839;SDS011;15207;42.182;24.308;2023-03-04T07:13:55;88.00;;;54.60;;
27839;SDS011;15207;42.182;24.308;2023-03-04T07:16:21;81.70;;;49.70;;
27839;SDS011;15207;42.182;24.308;2023-03-04T07:18:48;80.80;;;47.40;;
27839;SDS011;15207;42.182;24.308;2023-03-04T07:21:14;73.83;;;46.07;;
27839;SDS011;15207;42.182;24.308;2023-03-04T07:23:41;74.68;;;44.85;;
27839;SDS011;15207;42.182;24.308;2023-03-04T07:26:06;74.00;;;44.50;;
27839;SDS011;15207;42.182;24.308;2023-03-04T07:28:32;73.97;;;45.10;;
27839;SDS011;15207;42.182;24.308;2023-03-04T07:31:11;72.65;;;43.35;;
27839;SDS011;15207;42.182;24.308;2023-03-04T07:33:43;82.35;;;46.35;;
27839;SDS011;15207;42.182;24.308;2023-03-04T07:36:08;71.78;;;41.90;;
27839;SDS011;15207;42.182;24.308;2023-03-04T07:38:35;71.60;;;41.95;;
27839;SDS011;15207;42.182;24.308;2023-03-04T07:41:00;69.70;;;41.60;;
27839;SDS011;15207;42.182;24.308;2023-03-04T07:43:26;70.70;;;43.70;;
27839;SDS011;15207;42.182;24.308;2023-03-04T07:45:52;68.00;;;41.70;;
27839;SDS011;15207;42.182;24.308;2023-03-04T07:48:23;68.85;;;40.85;;
27839;SDS011;15207;42.182;24.308;2023-03-04T07:50:48;62.80;;;41.00;;
27839;SDS011;15207;42.182;24.308;2023-03-04T07:53:14;62.00;;;40.70;;
27839;SDS011;15207;42.182;24.308;2023-03-04T07:55:39;66.50;;;43.60;;
27839;SDS011;15207;42.182;24.308;2023-03-04T07:58:05;63.50;;;43.20;;
27839;SDS011;15207;42.182;24.308;2023-03-04T08:00:30;63.25;;;41.55;;
27839;SDS011;15207;42.182;24.308;2023-03-04T08:02:56;64.80;;;41.40;;
27839;SDS011;15207;42.182;24.308;2023-03-04T08:05:22;66.65;;;42.55;;
27839;SDS011;15207;42.182;24.308;2023-03-04T08:07:47;86.23;;;51.40;;
27839;SDS011;15207;42.182;24.308;2023-03-04T08:10:13;84.00;;;50.10;;
27839;SDS011;15207;42.182;24.308;2023-03-04T08:12:38;100.20;;;61.40;;
27839;SDS011;15207;42.182;24.308;2023-03-04T08:15:04;78.40;;;48.90;;
27839;SDS011;15207;42.182;24.308;2023-03-04T08:17:30;75.95;;;46.80;;
27839;SDS011;15207;42.182;24.308;2023-03-04T08:19:56;72.00;;;47.30;;
27839;SDS011;15207;42.182;24.308;2023-03-04T08:22:21;75.10;;;46.20;;
27839;SDS011;15207;42.182;24.308;2023-03-04T08:24:47;70.50;;;41.50;;
27839;SDS011;15207;42.182;24.308;2023-03-04T08:27:12;75.40;;;43.75;;
27839;SDS011;15207;42.182;24.308;2023-03-04T08:29:38;75.40;;;44.80;;
27839;SDS011;15207;42.182;24.308;2023-03-04T08:32:03;70.30;;;44.70;;
27839;SDS011;15207;42.182;24.308;2023-03-04T08:34:29;75.50;;;44.30;;
27839;SDS011;15207;42.182;24.308;2023-03-04T08:36:55;66.05;;;42.15;;
27839;SDS011;15207;42.182;24.308;2023-03-04T08:39:21;65.20;;;41.10;;
27839;SDS011;15207;42.182;24.308;2023-03-04T08:41:46;68.40;;;42.35;;
27839;SDS011;15207;42.182;24.308;2023-03-04T08:44:13;67.77;;;40.90;;
27839;SDS011;15207;42.182;24.308;2023-03-04T08:46:40;69.40;;;42.40;;
27839;SDS011;15207;42.182;24.308;2023-03-04T08:49:06;67.65;;;42.40;;
27839;SDS011;15207;42.182;24.308;2023-03-04T08:51:32;68.50;;;41.55;;
27839;SDS011;15207;42.182;24.308;2023-03-04T08:54:00;68.60;;;42.30;;
27839;SDS011;15207;42.182;24.308;2023-03-04T08:56:26;69.30;;;41.55;;
27839;SDS011;15207;42.182;24.308;2023-03-04T08:58:51;70.70;;;42.73;;
27839;SDS011;15207;42.182;24.308;2023-03-04T09:01:17;72.70;;;42.80;;
27839;SDS011;15207;42.182;24.308;2023-03-04T09:03:42;77.90;;;44.70;;
27839;SDS011;15207;42.182;24.308;2023-03-04T09:06:09;79.50;;;47.20;;
27839;SDS011;15207;42.182;24.308;2023-03-04T09:08:37;78.90;;;43.80;;
27839;SDS011;15207;42.182;24.308;2023-03-04T09:11:03;72.30;;;43.30;;
27839;SDS011;15207;42.182;24.308;2023-03-04T09:13:29;74.28;;;43.17;;
27839;SDS011;15207;42.182;24.308;2023-03-04T09:15:55;71.50;;;42.30;;
27839;SDS011;15207;42.182;24.308;2023-03-04T09:18:21;71.70;;;44.00;;
27839;SDS011;15207;42.182;24.308;2023-03-04T09:20:47;79.50;;;44.70;;
27839;SDS011;15207;42.182;24.308;2023-03-04T09:23:13;72.60;;;44.60;;
27839;SDS011;15207;42.182;24.308;2023-03-04T09:25:40;83.55;;;46.95;;
27839;SDS011;15207;42.182;24.308;2023-03-04T09:28:07;78.00;;;46.30;;
27839;SDS011;15207;42.182;24.308;2023-03-04T09:30:33;92.30;;;50.35;;
27839;SDS011;15207;42.182;24.308;2023-03-04T09:32:59;75.60;;;46.95;;
27839;SDS011;15207;42.182;24.308;2023-03-04T09:35:25;81.80;;;47.00;;
27839;SDS011;15207;42.182;24.308;2023-03-04T09:37:54;81.50;;;47.30;;
27839;SDS011;15207;42.182;24.308;2023-03-04T09:40:39;77.70;;;47.90;;
27839;SDS011;15207;42.182;24.308;2023-03-04T09:43:21;82.60;;;48.40;;
27839;SDS011;15207;42.182;24.308;2023-03-04T09:45:54;81.50;;;50.75;;
27839;SDS011;15207;42.182;24.308;2023-03-04T09:48:26;86.60;;;51.50;;
27839;SDS011;15207;42.182;24.308;2023-03-04T09:54:04;84.65;;;50.00;;
27839;SDS011;15207;42.182;24.308;2023-03-04T09:59:04;95.15;;;54.20;;
27839;SDS011;15207;42.182;24.308;2023-03-04T10:04:28;80.55;;;49.85;;
27839;SDS011;15207;42.182;24.308;2023-03-04T10:06:59;86.85;;;49.00;;
27839;SDS011;15207;42.182;24.308;2023-03-04T10:12:13;81.50;;;50.60;;
27839;SDS011;15207;42.182;24.308;2023-03-04T10:14:57;84.07;;;50.85;;
27839;SDS011;15207;42.182;24.308;2023-03-04T10:27:50;82.10;;;50.60;;
27839;SDS011;15207;42.182;24.308;2023-03-04T10:30:25;82.75;;;52.05;;
27839;SDS011;15207;42.182;24.308;2023-03-04T10:33:01;81.35;;;50.90;;
27839;SDS011;15207;42.182;24.308;2023-03-04T10:35:32;80.35;;;49.30;;
27839;SDS011;15207;42.182;24.308;2023-03-04T10:38:01;84.25;;;51.00;;
27839;SDS011;15207;42.182;24.308;2023-03-04T10:42:53;87.40;;;49.70;;
27839;SDS011;15207;42.182;24.308;2023-03-04T10:45:22;81.80;;;50.20;;
27839;SDS011;15207;42.182;24.308;2023-03-04T10:47:55;75.75;;;47.60;;
27839;SDS011;15207;42.182;24.308;2023-03-04T10:50:26;82.00;;;48.88;;
27839;SDS011;15207;42.182;24.308;2023-03-04T10:52:53;77.40;;;48.20;;
27839;SDS011;15207;42.182;24.308;2023-03-04T10:57:52;66.95;;;42.10;;
27839;SDS011;15207;42.182;24.308;2023-03-04T11:05:46;56.47;;;35.80;;
27839;SDS011;15207;42.182;24.308;2023-03-04T11:08:19;54.35;;;34.65;;
27839;SDS011;15207;42.182;24.308;2023-03-04T11:10:47;49.05;;;31.95;;
27839;SDS011;15207;42.182;24.308;2023-03-04T11:13:24;51.70;;;33.30;;
27839;SDS011;15207;42.182;24.308;2023-03-04T11:15:52;56.20;;;33.50;;
27839;SDS011;15207;42.182;24.308;2023-03-04T11:21:21;47.80;;;29.50;;
27839;SDS011;15207;42.182;24.308;2023-03-04T11:24:12;44.40;;;28.70;;
27839;SDS011;15207;42.182;24.308;2023-03-04T11:26:52;50.50;;;31.70;;
27839;SDS011;15207;42.182;24.308;2023-03-04T11:43:19;45.05;;;28.15;;
27839;SDS011;15207;42.182;24.308;2023-03-04T11:46:07;46.55;;;29.50;;
27839;SDS011;15207;42.182;24.308;2023-03-04T11:51:41;43.80;;;28.07;;
27839;SDS011;15207;42.182;24.308;2023-03-04T12:00:15;61.10;;;36.20;;
27839;SDS011;15207;42.182;24.308;2023-03-04T12:40:29;47.60;;;30.20;;
27839;SDS011;15207;42.182;24.308;2023-03-04T12:45:51;65.05;;;40.40;;
27839;SDS011;15207;42.182;24.308;2023-03-04T12:56:17;28.37;;;17.93;;
27839;SDS011;15207;42.182;24.308;2023-03-04T12:59:02;27.27;;;17.33;;
27839;SDS011;15207;42.182;24.308;2023-03-04T13:01:40;27.85;;;18.50;;
27839;SDS011;15207;42.182;24.308;2023-03-04T13:04:22;28.85;;;17.80;;
27839;SDS011;15207;42.182;24.308;2023-03-04T13:09:47;32.15;;;17.65;;
27839;SDS011;15207;42.182;24.308;2023-03-04T13:12:18;31.60;;;19.20;;
27839;SDS011;15207;42.182;24.308;2023-03-04T13:20:22;32.03;;;19.83;;
27839;SDS011;15207;42.182;24.308;2023-03-04T13:25:48;24.20;;;15.20;;
27839;SDS011;15207;42.182;24.308;2023-03-04T13:36:01;25.70;;;16.00;;
27839;SDS011;15207;42.182;24.308;2023-03-04T13:43:45;29.30;;;18.30;;
27839;SDS011;15207;42.182;24.308;2023-03-04T13:48:43;22.77;;;15.07;;
27839;SDS011;15207;42.182;24.308;2023-03-04T14:01:34;28.40;;;18.00;;
27839;SDS011;15207;42.182;24.308;2023-03-04T14:04:01;29.10;;;18.50;;
27839;SDS011;15207;42.182;24.308;2023-03-04T14:06:53;32.00;;;20.80;;
27839;SDS011;15207;42.182;24.308;2023-03-04T14:09:26;33.00;;;20.30;;
27839;SDS011;15207;42.182;24.308;2023-03-04T14:11:54;36.80;;;22.70;;
27839;SDS011;15207;42.182;24.308;2023-03-04T14:14:24;33.50;;;21.55;;
27839;SDS011;15207;42.182;24.308;2023-03-04T14:16:59;34.20;;;21.10;;
27839;SDS011;15207;42.182;24.308;2023-03-04T14:22:00;28.20;;;17.60;;
27839;SDS011;15207;42.182;24.308;2023-03-04T14:24:26;33.00;;;19.50;;
27839;SDS011;15207;42.182;24.308;2023-03-04T14:29:36;25.70;;;18.13;;
27839;SDS011;15207;42.182;24.308;2023-03-04T14:32:02;29.90;;;19.30;;
27839;SDS011;15207;42.182;24.308;2023-03-04T14:34:30;25.10;;;17.50;;
27839;SDS011;15207;42.182;24.308;2023-03-04T14:36:59;30.23;;;17.52;;
27839;SDS011;15207;42.182;24.308;2023-03-04T14:39:28;26.73;;;16.03;;
27839;SDS011;15207;42.182;24.308;2023-03-04T14:41:58;22.25;;;15.20;;
27839;SDS011;15207;42.182;24.308;2023-03-04T14:44:31;22.40;;;14.35;;
27839;SDS011;15207;42.182;24.308;2023-03-04T14:49:50;21.50;;;14.25;;
27839;SDS011;15207;42.182;24.308;2023-03-04T14:55:07;21.60;;;13.43;;
27839;SDS011;15207;42.182;24.308;2023-03-04T14:57:40;21.10;;;13.10;;
27839;SDS011;15207;42.182;24.308;2023-03-04T15:02:44;19.00;;;12.50;;
27839;SDS011;15207;42.182;24.308;2023-03-04T15:05:18;23.60;;;14.30;;
27839;SDS011;15207;42.182;24.308;2023-03-04T15:07:51;24.35;;;13.90;;
27839;SDS011;15207;42.182;24.308;2023-03-04T15:10:20;24.50;;;14.50;;
27839;SDS011;15207;42.182;24.308;2023-03-04T15:12:54;25.50;;;14.10;;
27839;SDS011;15207;42.182;24.308;2023-03-04T15:17:59;18.27;;;12.18;;
27839;SDS011;15207;42.182;24.308;2023-03-04T15:20:28;20.63;;;12.47;;
27839;SDS011;15207;42.182;24.308;2023-03-04T15:22:58;23.15;;;13.93;;
27839;SDS011;15207;42.182;24.308;2023-03-04T15:27:52;19.75;;;12.38;;
27839;SDS011;15207;42.182;24.308;2023-03-04T15:30:25;15.45;;;11.05;;
27839;SDS011;15207;42.182;24.308;2023-03-04T15:32:53;17.20;;;11.70;;
27839;SDS011;15207;42.182;24.308;2023-03-04T15:35:20;21.10;;;12.40;;
27839;SDS011;15207;42.182;24.308;2023-03-04T15:37:47;17.70;;;12.40;;
27839;SDS011;15207;42.182;24.308;2023-03-04T15:40:35;19.10;;;12.40;;
27839;SDS011;15207;42.182;24.308;2023-03-04T15:43:13;21.60;;;12.40;;
27839;SDS011;15207;42.182;24.308;2023-03-04T15:45:40;19.80;;;11.95;;
27839;SDS011;15207;42.182;24.308;2023-03-04T15:48:07;23.80;;;13.60;;
27839;SDS011;15207;42.182;24.308;2023-03-04T15:53:02;29.90;;;14.90;;
27839;SDS011;15207;42.182;24.308;2023-03-04T15:55:31;33.15;;;15.40;;
27839;SDS011;15207;42.182;24.308;2023-03-04T15:57:58;33.20;;;13.90;;
27839;SDS011;15207;42.182;24.308;2023-03-04T16:00:24;39.45;;;14.70;;
27839;SDS011;15207;42.182;24.308;2023-03-04T16:02:50;29.50;;;14.40;;
27839;SDS011;15207;42.182;24.308;2023-03-04T16:05:16;30.90;;;14.50;;
27839;SDS011;15207;42.182;24.308;2023-03-04T16:12:55;32.60;;;15.90;;
27839;SDS011;15207;42.182;24.308;2023-03-04T16:15:22;40.33;;;16.13;;
27839;SDS011;15207;42.182;24.308;2023-03-04T16:17:49;31.00;;;15.90;;
27839;SDS011;15207;42.182;24.308;2023-03-04T16:22:43;32.60;;;16.30;;
27839;SDS011;15207;42.182;24.308;2023-03-04T16:25:11;34.90;;;16.40;;
27839;SDS011;15207;42.182;24.308;2023-03-04T16:27:38;35.70;;;17.10;;
27839;SDS011;15207;42.182;24.308;2023-03-04T16:30:05;47.10;;;18.15;;
27839;SDS011;15207;42.182;24.308;2023-03-04T16:32:38;42.00;;;19.55;;
27839;SDS011;15207;42.182;24.308;2023-03-04T16:35:04;43.00;;;18.90;;
27839;SDS011;15207;42.182;24.308;2023-03-04T16:37:29;37.20;;;21.40;;
27839;SDS011;15207;42.182;24.308;2023-03-04T16:39:57;51.00;;;24.20;;
27839;SDS011;15207;42.182;24.308;2023-03-04T16:42:23;46.90;;;25.20;;
27839;SDS011;15207;42.182;24.308;2023-03-04T16:44:51;52.27;;;28.60;;
27839;SDS011;15207;42.182;24.308;2023-03-04T16:47:17;58.30;;;31.20;;
27839;SDS011;15207;42.182;24.308;2023-03-04T16:49:43;56.40;;;31.10;;
27839;SDS011;15207;42.182;24.308;2023-03-04T16:52:13;54.10;;;30.70;;
27839;SDS011;15207;42.182;24.308;2023-03-04T16:55:02;58.15;;;31.50;;
27839;SDS011;15207;42.182;24.308;2023-03-04T16:57:28;59.25;;;32.85;;
27839;SDS011;15207;42.182;24.308;2023-03-04T17:02:21;70.20;;;38.60;;
27839;SDS011;15207;42.182;24.308;2023-03-04T17:04:50;55.65;;;30.85;;
27839;SDS011;15207;42.182;24.308;2023-03-04T17:07:16;59.80;;;30.80;;
27839;SDS011;15207;42.182;24.308;2023-03-04T17:09:42;64.10;;;33.80;;
27839;SDS011;15207;42.182;24.308;2023-03-04T17:12:08;61.20;;;33.60;;
27839;SDS011;15207;42.182;24.308;2023-03-04T17:14:35;67.00;;;38.00;;